sensor_id;sensor_type;location;lat;lon;timestamp;P1;durP1;ratioP1;P2;durP2;ratioP2
20014;SDS011;61787;42.022;23.078;2022-07-30T00:00:26;15.07;;;13.68;;
20014;SDS011;61787;42.022;23.078;2022-07-30T00:01:27;16.77;;;13.60;;
20014;SDS011;61787;42.022;23.078;2022-07-30T00:02:29;16.02;;;14.38;;
20014;SDS011;61787;42.022;23.078;2022-07-30T00:03:31;17.58;;;14.38;;
20014;SDS011;61787;42.022;23.078;2022-07-30T00:04:34;15.98;;;14.27;;
20014;SDS011;61787;42.022;23.078;2022-07-30T00:05:36;16.02;;;14.30;;
20014;SDS011;61787;42.022;23.078;2022-07-30T00:06:37;15.95;;;14.27;;
20014;SDS011;61787;42.022;23.078;2022-07-30T00:07:40;17.08;;;15.02;;
20014;SDS011;61787;42.022;23.078;2022-07-30T00:08:41;15.70;;;14.15;;
20014;SDS011;61787;42.022;23.078;2022-07-30T00:09:43;16.15;;;14.55;;
20014;SDS011;61787;42.022;23.078;2022-07-30T00:10:45;15.13;;;13.73;;
20014;SDS011;61787;42.022;23.078;2022-07-30T00:11:50;17.05;;;13.57;;
20014;SDS011;61787;42.022;23.078;2022-07-30T00:12:52;15.10;;;13.38;;
20014;SDS011;61787;42.022;23.078;2022-07-30T00:13:53;16.80;;;14.30;;
20014;SDS011;61787;42.022;23.078;2022-07-30T00:14:55;15.50;;;13.98;;
20014;SDS011;61787;42.022;23.078;2022-07-30T00:15:57;15.35;;;13.85;;
20014;SDS011;61787;42.022;23.078;2022-07-30T00:16:59;14.90;;;13.48;;
20014;SDS011;61787;42.022;23.078;2022-07-30T00:18:03;14.65;;;13.10;;
20014;SDS011;61787;42.022;23.078;2022-07-30T00:19:05;14.63;;;13.07;;
20014;SDS011;61787;42.022;23.078;2022-07-30T00:20:08;16.38;;;13.93;;
20014;SDS011;61787;42.022;23.078;2022-07-30T00:21:12;14.55;;;13.05;;
20014;SDS011;61787;42.022;23.078;2022-07-30T00:22:35;15.13;;;13.15;;
20014;SDS011;61787;42.022;23.078;2022-07-30T00:23:36;14.73;;;13.32;;
20014;SDS011;61787;42.022;23.078;2022-07-30T00:24:38;14.52;;;12.70;;
20014;SDS011;61787;42.022;23.078;2022-07-30T00:25:40;14.60;;;13.20;;
20014;SDS011;61787;42.022;23.078;2022-07-30T00:26:41;15.77;;;12.75;;
20014;SDS011;61787;42.022;23.078;2022-07-30T00:27:43;18.58;;;12.93;;
20014;SDS011;61787;42.022;23.078;2022-07-30T00:28:45;14.30;;;13.00;;
20014;SDS011;61787;42.022;23.078;2022-07-30T00:29:47;14.07;;;12.63;;
20014;SDS011;61787;42.022;23.078;2022-07-30T00:30:49;14.45;;;12.88;;
20014;SDS011;61787;42.022;23.078;2022-07-30T00:31:56;14.73;;;13.20;;
20014;SDS011;61787;42.022;23.078;2022-07-30T00:32:58;14.32;;;12.48;;
20014;SDS011;61787;42.022;23.078;2022-07-30T00:33:59;13.43;;;12.05;;
20014;SDS011;61787;42.022;23.078;2022-07-30T00:35:01;13.95;;;12.55;;
20014;SDS011;61787;42.022;23.078;2022-07-30T00:36:03;16.50;;;13.15;;
20014;SDS011;61787;42.022;23.078;2022-07-30T00:37:05;15.18;;;13.60;;
20014;SDS011;61787;42.022;23.078;2022-07-30T00:38:07;14.80;;;12.95;;
20014;SDS011;61787;42.022;23.078;2022-07-30T00:39:08;14.25;;;12.65;;
20014;SDS011;61787;42.022;23.078;2022-07-30T00:40:10;14.43;;;12.93;;
20014;SDS011;61787;42.022;23.078;2022-07-30T00:41:12;15.95;;;14.25;;
20014;SDS011;61787;42.022;23.078;2022-07-30T00:42:15;14.75;;;13.20;;
20014;SDS011;61787;42.022;23.078;2022-07-30T00:43:23;16.42;;;13.68;;
20014;SDS011;61787;42.022;23.078;2022-07-30T00:44:25;14.95;;;13.02;;
20014;SDS011;61787;42.022;23.078;2022-07-30T00:45:28;15.60;;;13.07;;
20014;SDS011;61787;42.022;23.078;2022-07-30T00:46:29;18.00;;;14.85;;
20014;SDS011;61787;42.022;23.078;2022-07-30T00:47:31;16.38;;;13.98;;
20014;SDS011;61787;42.022;23.078;2022-07-30T00:48:33;15.35;;;13.73;;
20014;SDS011;61787;42.022;23.078;2022-07-30T00:49:34;14.60;;;13.05;;
20014;SDS011;61787;42.022;23.078;2022-07-30T00:50:36;15.63;;;13.93;;
20014;SDS011;61787;42.022;23.078;2022-07-30T00:51:38;14.80;;;13.30;;
20014;SDS011;61787;42.022;23.078;2022-07-30T00:52:40;16.90;;;14.40;;
20014;SDS011;61787;42.022;23.078;2022-07-30T00:53:43;15.93;;;14.00;;
20014;SDS011;61787;42.022;23.078;2022-07-30T00:54:44;14.52;;;13.05;;
20014;SDS011;61787;42.022;23.078;2022-07-30T00:55:46;17.35;;;14.38;;
20014;SDS011;61787;42.022;23.078;2022-07-30T00:56:48;13.70;;;12.27;;
20014;SDS011;61787;42.022;23.078;2022-07-30T00:57:50;13.43;;;12.00;;
20014;SDS011;61787;42.022;23.078;2022-07-30T00:58:51;16.70;;;12.95;;
20014;SDS011;61787;42.022;23.078;2022-07-30T00:59:53;15.02;;;11.98;;
20014;SDS011;61787;42.022;23.078;2022-07-30T01:00:55;13.50;;;12.10;;
20014;SDS011;61787;42.022;23.078;2022-07-30T01:01:57;15.43;;;12.40;;
20014;SDS011;61787;42.022;23.078;2022-07-30T01:03:02;13.93;;;11.82;;
20014;SDS011;61787;42.022;23.078;2022-07-30T01:04:04;13.55;;;12.23;;
20014;SDS011;61787;42.022;23.078;2022-07-30T01:05:11;13.18;;;11.88;;
20014;SDS011;61787;42.022;23.078;2022-07-30T01:06:13;15.38;;;12.15;;
20014;SDS011;61787;42.022;23.078;2022-07-30T01:07:15;14.25;;;12.75;;
20014;SDS011;61787;42.022;23.078;2022-07-30T01:08:17;14.43;;;13.02;;
20014;SDS011;61787;42.022;23.078;2022-07-30T01:09:19;13.90;;;12.45;;
20014;SDS011;61787;42.022;23.078;2022-07-30T01:10:20;14.15;;;12.65;;
20014;SDS011;61787;42.022;23.078;2022-07-30T01:11:23;15.20;;;12.98;;
20014;SDS011;61787;42.022;23.078;2022-07-30T01:12:32;14.50;;;12.73;;
20014;SDS011;61787;42.022;23.078;2022-07-30T01:13:34;17.05;;;13.55;;
20014;SDS011;61787;42.022;23.078;2022-07-30T01:14:36;16.08;;;14.07;;
20014;SDS011;61787;42.022;23.078;2022-07-30T01:15:38;13.25;;;11.85;;
20014;SDS011;61787;42.022;23.078;2022-07-30T01:16:40;14.65;;;13.00;;
20014;SDS011;61787;42.022;23.078;2022-07-30T01:17:43;15.45;;;13.23;;
20014;SDS011;61787;42.022;23.078;2022-07-30T01:18:53;15.95;;;13.32;;
20014;SDS011;61787;42.022;23.078;2022-07-30T01:20:22;17.10;;;13.52;;
20014;SDS011;61787;42.022;23.078;2022-07-30T01:21:31;15.23;;;12.75;;
20014;SDS011;61787;42.022;23.078;2022-07-30T01:23:55;14.73;;;13.23;;
20014;SDS011;61787;42.022;23.078;2022-07-30T01:26:24;14.60;;;12.93;;
20014;SDS011;61787;42.022;23.078;2022-07-30T01:27:27;15.02;;;13.45;;
20014;SDS011;61787;42.022;23.078;2022-07-30T01:28:51;15.00;;;12.88;;
20014;SDS011;61787;42.022;23.078;2022-07-30T01:29:56;14.77;;;13.27;;
20014;SDS011;61787;42.022;23.078;2022-07-30T01:30:59;15.15;;;12.75;;
20014;SDS011;61787;42.022;23.078;2022-07-30T01:32:04;15.05;;;12.13;;
20014;SDS011;61787;42.022;23.078;2022-07-30T01:33:10;14.75;;;12.82;;
20014;SDS011;61787;42.022;23.078;2022-07-30T01:34:15;14.57;;;12.68;;
20014;SDS011;61787;42.022;23.078;2022-07-30T01:35:18;12.90;;;11.63;;
20014;SDS011;61787;42.022;23.078;2022-07-30T01:36:21;15.57;;;12.85;;
20014;SDS011;61787;42.022;23.078;2022-07-30T01:37:24;13.43;;;12.15;;
20014;SDS011;61787;42.022;23.078;2022-07-30T01:38:28;15.05;;;12.68;;
20014;SDS011;61787;42.022;23.078;2022-07-30T01:39:35;14.32;;;12.80;;
20014;SDS011;61787;42.022;23.078;2022-07-30T01:40:38;12.95;;;11.70;;
20014;SDS011;61787;42.022;23.078;2022-07-30T01:41:43;14.10;;;12.10;;
20014;SDS011;61787;42.022;23.078;2022-07-30T01:42:46;15.13;;;12.75;;
20014;SDS011;61787;42.022;23.078;2022-07-30T01:43:53;16.48;;;12.52;;
20014;SDS011;61787;42.022;23.078;2022-07-30T01:44:56;14.45;;;12.25;;
20014;SDS011;61787;42.022;23.078;2022-07-30T01:45:59;15.15;;;13.55;;
20014;SDS011;61787;42.022;23.078;2022-07-30T01:47:03;15.70;;;14.00;;
20014;SDS011;61787;42.022;23.078;2022-07-30T01:48:05;17.30;;;15.25;;
20014;SDS011;61787;42.022;23.078;2022-07-30T01:49:10;16.40;;;14.50;;
20014;SDS011;61787;42.022;23.078;2022-07-30T01:50:12;18.35;;;15.10;;
20014;SDS011;61787;42.022;23.078;2022-07-30T01:51:15;17.05;;;13.95;;
20014;SDS011;61787;42.022;23.078;2022-07-30T01:52:19;18.42;;;14.60;;
20014;SDS011;61787;42.022;23.078;2022-07-30T01:53:23;16.40;;;14.32;;
20014;SDS011;61787;42.022;23.078;2022-07-30T01:54:26;16.77;;;14.02;;
20014;SDS011;61787;42.022;23.078;2022-07-30T01:55:36;19.30;;;15.38;;
20014;SDS011;61787;42.022;23.078;2022-07-30T01:56:41;17.35;;;15.52;;
20014;SDS011;61787;42.022;23.078;2022-07-30T01:57:45;18.13;;;16.23;;
20014;SDS011;61787;42.022;23.078;2022-07-30T01:58:49;17.13;;;15.43;;
20014;SDS011;61787;42.022;23.078;2022-07-30T01:59:54;17.70;;;15.13;;
20014;SDS011;61787;42.022;23.078;2022-07-30T02:01:02;17.42;;;15.75;;
20014;SDS011;61787;42.022;23.078;2022-07-30T02:02:05;17.65;;;15.45;;
20014;SDS011;61787;42.022;23.078;2022-07-30T02:03:08;16.58;;;14.88;;
20014;SDS011;61787;42.022;23.078;2022-07-30T02:04:11;16.02;;;14.40;;
20014;SDS011;61787;42.022;23.078;2022-07-30T02:05:12;17.95;;;16.02;;
20014;SDS011;61787;42.022;23.078;2022-07-30T02:06:21;19.48;;;15.43;;
20014;SDS011;61787;42.022;23.078;2022-07-30T02:07:28;17.25;;;15.30;;
20014;SDS011;61787;42.022;23.078;2022-07-30T02:08:37;16.38;;;14.77;;
20014;SDS011;61787;42.022;23.078;2022-07-30T02:09:56;21.40;;;16.15;;
20014;SDS011;61787;42.022;23.078;2022-07-30T02:11:12;18.20;;;15.50;;
20014;SDS011;61787;42.022;23.078;2022-07-30T02:12:37;18.67;;;15.27;;
20014;SDS011;61787;42.022;23.078;2022-07-30T02:13:49;19.30;;;15.07;;
20014;SDS011;61787;42.022;23.078;2022-07-30T02:15:02;16.52;;;14.75;;
20014;SDS011;61787;42.022;23.078;2022-07-30T02:16:21;16.20;;;14.43;;
20014;SDS011;61787;42.022;23.078;2022-07-30T02:19:02;16.48;;;14.55;;
20014;SDS011;61787;42.022;23.078;2022-07-30T02:20:08;18.42;;;15.02;;
20014;SDS011;61787;42.022;23.078;2022-07-30T02:21:13;15.20;;;13.63;;
20014;SDS011;61787;42.022;23.078;2022-07-30T02:22:19;17.13;;;15.30;;
20014;SDS011;61787;42.022;23.078;2022-07-30T02:23:23;19.13;;;15.77;;
20014;SDS011;61787;42.022;23.078;2022-07-30T02:24:28;24.55;;;15.68;;
20014;SDS011;61787;42.022;23.078;2022-07-30T02:25:32;17.42;;;14.43;;
20014;SDS011;61787;42.022;23.078;2022-07-30T02:26:36;18.33;;;15.57;;
20014;SDS011;61787;42.022;23.078;2022-07-30T02:27:39;16.05;;;14.45;;
20014;SDS011;61787;42.022;23.078;2022-07-30T02:28:47;17.52;;;15.55;;
20014;SDS011;61787;42.022;23.078;2022-07-30T02:29:51;17.92;;;15.30;;
20014;SDS011;61787;42.022;23.078;2022-07-30T02:30:57;17.45;;;15.73;;
20014;SDS011;61787;42.022;23.078;2022-07-30T02:32:00;16.23;;;14.63;;
20014;SDS011;61787;42.022;23.078;2022-07-30T02:33:09;16.63;;;15.02;;
20014;SDS011;61787;42.022;23.078;2022-07-30T02:34:14;17.52;;;15.82;;
20014;SDS011;61787;42.022;23.078;2022-07-30T02:35:18;17.15;;;15.43;;
20014;SDS011;61787;42.022;23.078;2022-07-30T02:36:21;17.42;;;15.52;;
20014;SDS011;61787;42.022;23.078;2022-07-30T02:37:24;16.00;;;14.23;;
20014;SDS011;61787;42.022;23.078;2022-07-30T02:38:44;16.75;;;13.68;;
20014;SDS011;61787;42.022;23.078;2022-07-30T02:39:47;16.20;;;13.93;;
20014;SDS011;61787;42.022;23.078;2022-07-30T02:40:51;17.45;;;13.38;;
20014;SDS011;61787;42.022;23.078;2022-07-30T02:41:55;17.52;;;14.20;;
20014;SDS011;61787;42.022;23.078;2022-07-30T02:42:58;14.43;;;13.02;;
20014;SDS011;61787;42.022;23.078;2022-07-30T02:44:01;14.02;;;12.60;;
20014;SDS011;61787;42.022;23.078;2022-07-30T02:45:04;17.98;;;13.85;;
20014;SDS011;61787;42.022;23.078;2022-07-30T02:46:07;14.90;;;13.30;;
20014;SDS011;61787;42.022;23.078;2022-07-30T02:47:12;14.88;;;12.13;;
20014;SDS011;61787;42.022;23.078;2022-07-30T02:48:17;14.73;;;13.18;;
20014;SDS011;61787;42.022;23.078;2022-07-30T02:49:34;16.73;;;15.13;;
20014;SDS011;61787;42.022;23.078;2022-07-30T02:50:37;18.73;;;15.77;;
20014;SDS011;61787;42.022;23.078;2022-07-30T02:51:40;17.30;;;15.15;;
20014;SDS011;61787;42.022;23.078;2022-07-30T02:52:43;16.77;;;14.98;;
20014;SDS011;61787;42.022;23.078;2022-07-30T02:53:46;17.33;;;14.60;;
20014;SDS011;61787;42.022;23.078;2022-07-30T02:54:52;15.90;;;14.30;;
20014;SDS011;61787;42.022;23.078;2022-07-30T02:55:56;18.88;;;14.48;;
20014;SDS011;61787;42.022;23.078;2022-07-30T02:57:01;18.25;;;15.10;;
20014;SDS011;61787;42.022;23.078;2022-07-30T02:58:05;16.45;;;14.35;;
20014;SDS011;61787;42.022;23.078;2022-07-30T02:59:07;17.00;;;14.90;;
20014;SDS011;61787;42.022;23.078;2022-07-30T03:00:11;17.67;;;15.15;;
20014;SDS011;61787;42.022;23.078;2022-07-30T03:01:14;15.95;;;14.20;;
20014;SDS011;61787;42.022;23.078;2022-07-30T03:02:18;15.90;;;13.98;;
20014;SDS011;61787;42.022;23.078;2022-07-30T03:03:30;15.30;;;13.35;;
20014;SDS011;61787;42.022;23.078;2022-07-30T03:04:32;17.63;;;13.98;;
20014;SDS011;61787;42.022;23.078;2022-07-30T03:05:37;16.48;;;14.68;;
20014;SDS011;61787;42.022;23.078;2022-07-30T03:06:41;15.70;;;14.10;;
20014;SDS011;61787;42.022;23.078;2022-07-30T03:07:44;16.17;;;14.48;;
20014;SDS011;61787;42.022;23.078;2022-07-30T03:08:46;15.93;;;14.23;;
20014;SDS011;61787;42.022;23.078;2022-07-30T03:09:48;15.15;;;13.63;;
20014;SDS011;61787;42.022;23.078;2022-07-30T03:10:54;17.27;;;14.65;;
20014;SDS011;61787;42.022;23.078;2022-07-30T03:11:56;15.88;;;14.20;;
20014;SDS011;61787;42.022;23.078;2022-07-30T03:12:59;18.88;;;14.38;;
20014;SDS011;61787;42.022;23.078;2022-07-30T03:14:02;17.15;;;15.00;;
20014;SDS011;61787;42.022;23.078;2022-07-30T03:15:04;16.75;;;14.98;;
20014;SDS011;61787;42.022;23.078;2022-07-30T03:16:07;18.48;;;14.38;;
20014;SDS011;61787;42.022;23.078;2022-07-30T03:17:10;19.15;;;14.50;;
20014;SDS011;61787;42.022;23.078;2022-07-30T03:18:16;18.73;;;14.60;;
20014;SDS011;61787;42.022;23.078;2022-07-30T03:19:19;17.23;;;13.98;;
20014;SDS011;61787;42.022;23.078;2022-07-30T03:20:26;15.85;;;14.10;;
20014;SDS011;61787;42.022;23.078;2022-07-30T03:21:29;16.95;;;13.88;;
20014;SDS011;61787;42.022;23.078;2022-07-30T03:22:36;16.13;;;14.57;;
20014;SDS011;61787;42.022;23.078;2022-07-30T03:23:41;14.68;;;13.23;;
20014;SDS011;61787;42.022;23.078;2022-07-30T03:24:45;16.75;;;14.32;;
20014;SDS011;61787;42.022;23.078;2022-07-30T03:25:59;18.13;;;14.25;;
20014;SDS011;61787;42.022;23.078;2022-07-30T03:27:02;15.73;;;14.18;;
20014;SDS011;61787;42.022;23.078;2022-07-30T03:28:05;17.98;;;13.88;;
20014;SDS011;61787;42.022;23.078;2022-07-30T03:29:08;13.98;;;12.57;;
20014;SDS011;61787;42.022;23.078;2022-07-30T03:30:12;13.68;;;12.18;;
20014;SDS011;61787;42.022;23.078;2022-07-30T03:31:14;12.70;;;11.40;;
20014;SDS011;61787;42.022;23.078;2022-07-30T03:32:18;14.18;;;11.60;;
20014;SDS011;61787;42.022;23.078;2022-07-30T03:33:26;14.00;;;11.50;;
20014;SDS011;61787;42.022;23.078;2022-07-30T03:34:39;12.70;;;11.02;;
20014;SDS011;61787;42.022;23.078;2022-07-30T03:35:43;16.48;;;11.65;;
20014;SDS011;61787;42.022;23.078;2022-07-30T03:36:47;13.65;;;12.18;;
20014;SDS011;61787;42.022;23.078;2022-07-30T03:37:50;13.60;;;11.57;;
20014;SDS011;61787;42.022;23.078;2022-07-30T03:38:52;12.88;;;11.57;;
20014;SDS011;61787;42.022;23.078;2022-07-30T03:39:54;13.10;;;11.80;;
20014;SDS011;61787;42.022;23.078;2022-07-30T03:40:58;13.32;;;12.02;;
20014;SDS011;61787;42.022;23.078;2022-07-30T03:42:01;12.57;;;11.35;;
20014;SDS011;61787;42.022;23.078;2022-07-30T03:43:03;12.77;;;11.38;;
20014;SDS011;61787;42.022;23.078;2022-07-30T03:44:18;13.32;;;11.63;;
20014;SDS011;61787;42.022;23.078;2022-07-30T03:45:21;14.52;;;11.93;;
20014;SDS011;61787;42.022;23.078;2022-07-30T03:46:23;13.18;;;11.40;;
20014;SDS011;61787;42.022;23.078;2022-07-30T03:47:26;13.82;;;12.32;;
20014;SDS011;61787;42.022;23.078;2022-07-30T03:48:29;14.15;;;12.75;;
20014;SDS011;61787;42.022;23.078;2022-07-30T03:49:33;15.73;;;13.68;;
20014;SDS011;61787;42.022;23.078;2022-07-30T03:50:35;15.88;;;13.32;;
20014;SDS011;61787;42.022;23.078;2022-07-30T03:51:38;15.32;;;13.20;;
20014;SDS011;61787;42.022;23.078;2022-07-30T03:52:40;15.82;;;14.10;;
20014;SDS011;61787;42.022;23.078;2022-07-30T03:53:42;15.40;;;13.80;;
20014;SDS011;61787;42.022;23.078;2022-07-30T03:54:45;15.75;;;13.63;;
20014;SDS011;61787;42.022;23.078;2022-07-30T03:55:48;15.10;;;13.52;;
20014;SDS011;61787;42.022;23.078;2022-07-30T03:56:52;16.08;;;14.40;;
20014;SDS011;61787;42.022;23.078;2022-07-30T03:57:54;15.45;;;13.82;;
20014;SDS011;61787;42.022;23.078;2022-07-30T03:58:55;16.83;;;15.25;;
20014;SDS011;61787;42.022;23.078;2022-07-30T03:59:57;16.80;;;14.80;;
20014;SDS011;61787;42.022;23.078;2022-07-30T04:00:59;17.70;;;14.70;;
20014;SDS011;61787;42.022;23.078;2022-07-30T04:02:01;16.00;;;14.55;;
20014;SDS011;61787;42.022;23.078;2022-07-30T04:03:07;16.25;;;14.38;;
20014;SDS011;61787;42.022;23.078;2022-07-30T04:04:10;22.08;;;14.35;;
20014;SDS011;61787;42.022;23.078;2022-07-30T04:05:12;15.75;;;13.90;;
20014;SDS011;61787;42.022;23.078;2022-07-30T04:06:15;17.90;;;13.23;;
20014;SDS011;61787;42.022;23.078;2022-07-30T04:07:16;16.33;;;14.40;;
20014;SDS011;61787;42.022;23.078;2022-07-30T04:08:18;17.80;;;13.63;;
20014;SDS011;61787;42.022;23.078;2022-07-30T04:09:21;19.30;;;13.88;;
20014;SDS011;61787;42.022;23.078;2022-07-30T04:10:23;15.05;;;13.27;;
20014;SDS011;61787;42.022;23.078;2022-07-30T04:11:24;17.75;;;13.88;;
20014;SDS011;61787;42.022;23.078;2022-07-30T04:12:41;14.43;;;12.85;;
20014;SDS011;61787;42.022;23.078;2022-07-30T04:13:43;15.27;;;13.70;;
20014;SDS011;61787;42.022;23.078;2022-07-30T04:14:46;16.50;;;13.75;;
20014;SDS011;61787;42.022;23.078;2022-07-30T04:17:16;14.23;;;12.60;;
20014;SDS011;61787;42.022;23.078;2022-07-30T04:18:22;15.02;;;12.32;;
20014;SDS011;61787;42.022;23.078;2022-07-30T04:19:30;14.73;;;13.05;;
20014;SDS011;61787;42.022;23.078;2022-07-30T04:20:40;14.20;;;12.80;;
20014;SDS011;61787;42.022;23.078;2022-07-30T04:21:43;14.63;;;12.80;;
20014;SDS011;61787;42.022;23.078;2022-07-30T04:22:48;14.30;;;12.80;;
20014;SDS011;61787;42.022;23.078;2022-07-30T04:23:51;14.07;;;12.38;;
20014;SDS011;61787;42.022;23.078;2022-07-30T04:25:05;14.82;;;12.40;;
20014;SDS011;61787;42.022;23.078;2022-07-30T04:26:08;12.95;;;11.38;;
20014;SDS011;61787;42.022;23.078;2022-07-30T04:27:10;15.10;;;12.80;;
20014;SDS011;61787;42.022;23.078;2022-07-30T04:28:13;13.82;;;12.25;;
20014;SDS011;61787;42.022;23.078;2022-07-30T04:29:15;13.45;;;11.57;;
20014;SDS011;61787;42.022;23.078;2022-07-30T04:30:24;14.65;;;12.60;;
20014;SDS011;61787;42.022;23.078;2022-07-30T04:31:28;13.60;;;12.15;;
20014;SDS011;61787;42.022;23.078;2022-07-30T04:32:41;14.30;;;12.82;;
20014;SDS011;61787;42.022;23.078;2022-07-30T04:33:46;15.20;;;12.27;;
20014;SDS011;61787;42.022;23.078;2022-07-30T04:34:48;15.57;;;12.40;;
20014;SDS011;61787;42.022;23.078;2022-07-30T04:35:51;14.10;;;12.57;;
20014;SDS011;61787;42.022;23.078;2022-07-30T04:36:54;15.82;;;12.35;;
20014;SDS011;61787;42.022;23.078;2022-07-30T04:37:55;14.70;;;13.07;;
20014;SDS011;61787;42.022;23.078;2022-07-30T04:38:58;15.48;;;12.32;;
20014;SDS011;61787;42.022;23.078;2022-07-30T04:40:00;13.55;;;12.27;;
20014;SDS011;61787;42.022;23.078;2022-07-30T04:41:02;17.60;;;12.27;;
20014;SDS011;61787;42.022;23.078;2022-07-30T04:42:04;14.60;;;12.63;;
20014;SDS011;61787;42.022;23.078;2022-07-30T04:43:06;18.45;;;12.90;;
20014;SDS011;61787;42.022;23.078;2022-07-30T04:44:08;14.13;;;11.43;;
20014;SDS011;61787;42.022;23.078;2022-07-30T04:45:10;13.98;;;12.48;;
20014;SDS011;61787;42.022;23.078;2022-07-30T04:46:14;14.48;;;13.00;;
20014;SDS011;61787;42.022;23.078;2022-07-30T04:47:19;14.18;;;12.75;;
20014;SDS011;61787;42.022;23.078;2022-07-30T04:48:21;17.63;;;12.63;;
20014;SDS011;61787;42.022;23.078;2022-07-30T04:49:23;16.83;;;12.98;;
20014;SDS011;61787;42.022;23.078;2022-07-30T04:50:26;14.18;;;12.68;;
20014;SDS011;61787;42.022;23.078;2022-07-30T04:51:31;17.58;;;13.45;;
20014;SDS011;61787;42.022;23.078;2022-07-30T04:52:34;14.77;;;13.27;;
20014;SDS011;61787;42.022;23.078;2022-07-30T04:53:36;15.40;;;13.32;;
20014;SDS011;61787;42.022;23.078;2022-07-30T04:54:42;14.73;;;13.20;;
20014;SDS011;61787;42.022;23.078;2022-07-30T04:55:46;15.75;;;14.10;;
20014;SDS011;61787;42.022;23.078;2022-07-30T04:56:49;18.05;;;12.95;;
20014;SDS011;61787;42.022;23.078;2022-07-30T04:58:01;18.00;;;13.27;;
20014;SDS011;61787;42.022;23.078;2022-07-30T04:59:04;15.50;;;13.55;;
20014;SDS011;61787;42.022;23.078;2022-07-30T05:00:07;15.73;;;13.77;;
20014;SDS011;61787;42.022;23.078;2022-07-30T05:01:09;15.95;;;13.13;;
20014;SDS011;61787;42.022;23.078;2022-07-30T05:02:12;15.75;;;13.27;;
20014;SDS011;61787;42.022;23.078;2022-07-30T05:03:16;19.30;;;12.75;;
20014;SDS011;61787;42.022;23.078;2022-07-30T05:04:19;16.85;;;12.68;;
20014;SDS011;61787;42.022;23.078;2022-07-30T05:05:23;16.83;;;13.05;;
20014;SDS011;61787;42.022;23.078;2022-07-30T05:06:27;15.00;;;13.43;;
20014;SDS011;61787;42.022;23.078;2022-07-30T05:07:30;16.23;;;13.35;;
20014;SDS011;61787;42.022;23.078;2022-07-30T05:08:33;15.70;;;12.55;;
20014;SDS011;61787;42.022;23.078;2022-07-30T05:09:35;18.48;;;13.45;;
20014;SDS011;61787;42.022;23.078;2022-07-30T05:10:37;16.60;;;13.60;;
20014;SDS011;61787;42.022;23.078;2022-07-30T05:11:39;15.63;;;13.68;;
20014;SDS011;61787;42.022;23.078;2022-07-30T05:12:40;18.45;;;13.35;;
20014;SDS011;61787;42.022;23.078;2022-07-30T05:13:43;16.75;;;13.27;;
20014;SDS011;61787;42.022;23.078;2022-07-30T05:14:46;18.05;;;12.65;;
20014;SDS011;61787;42.022;23.078;2022-07-30T05:15:48;15.82;;;13.75;;
20014;SDS011;61787;42.022;23.078;2022-07-30T05:16:51;15.05;;;12.63;;
20014;SDS011;61787;42.022;23.078;2022-07-30T05:17:53;13.25;;;11.52;;
20014;SDS011;61787;42.022;23.078;2022-07-30T05:18:55;14.27;;;12.40;;
20014;SDS011;61787;42.022;23.078;2022-07-30T05:19:56;13.88;;;12.63;;
20014;SDS011;61787;42.022;23.078;2022-07-30T05:20:59;14.40;;;12.07;;
20014;SDS011;61787;42.022;23.078;2022-07-30T05:22:01;13.60;;;12.25;;
20014;SDS011;61787;42.022;23.078;2022-07-30T05:23:07;13.68;;;12.27;;
20014;SDS011;61787;42.022;23.078;2022-07-30T05:24:08;13.93;;;12.45;;
20014;SDS011;61787;42.022;23.078;2022-07-30T05:25:10;20.83;;;11.65;;
20014;SDS011;61787;42.022;23.078;2022-07-30T05:26:19;14.07;;;12.75;;
20014;SDS011;61787;42.022;23.078;2022-07-30T05:27:27;17.52;;;12.35;;
20014;SDS011;61787;42.022;23.078;2022-07-30T05:28:29;16.35;;;13.40;;
20014;SDS011;61787;42.022;23.078;2022-07-30T05:29:31;13.77;;;12.30;;
20014;SDS011;61787;42.022;23.078;2022-07-30T05:30:33;15.02;;;12.80;;
20014;SDS011;61787;42.022;23.078;2022-07-30T05:31:35;15.68;;;13.02;;
20014;SDS011;61787;42.022;23.078;2022-07-30T05:32:38;15.27;;;13.32;;
20014;SDS011;61787;42.022;23.078;2022-07-30T05:33:40;15.73;;;13.13;;
20014;SDS011;61787;42.022;23.078;2022-07-30T05:34:43;15.23;;;12.80;;
20014;SDS011;61787;42.022;23.078;2022-07-30T05:35:50;18.15;;;13.60;;
20014;SDS011;61787;42.022;23.078;2022-07-30T05:36:51;15.75;;;13.25;;
20014;SDS011;61787;42.022;23.078;2022-07-30T05:37:53;15.88;;;13.27;;
20014;SDS011;61787;42.022;23.078;2022-07-30T05:38:55;16.05;;;13.02;;
20014;SDS011;61787;42.022;23.078;2022-07-30T05:39:57;15.20;;;12.90;;
20014;SDS011;61787;42.022;23.078;2022-07-30T05:41:03;15.10;;;13.20;;
20014;SDS011;61787;42.022;23.078;2022-07-30T05:42:25;14.02;;;12.18;;
20014;SDS011;61787;42.022;23.078;2022-07-30T05:43:26;14.30;;;12.63;;
20014;SDS011;61787;42.022;23.078;2022-07-30T05:44:28;15.05;;;13.50;;
20014;SDS011;61787;42.022;23.078;2022-07-30T05:45:30;19.95;;;13.27;;
20014;SDS011;61787;42.022;23.078;2022-07-30T05:46:32;14.48;;;12.98;;
20014;SDS011;61787;42.022;23.078;2022-07-30T05:47:34;15.10;;;13.43;;
20014;SDS011;61787;42.022;23.078;2022-07-30T05:48:36;14.57;;;13.18;;
20014;SDS011;61787;42.022;23.078;2022-07-30T05:49:37;17.40;;;13.77;;
20014;SDS011;61787;42.022;23.078;2022-07-30T05:50:39;17.90;;;14.75;;
20014;SDS011;61787;42.022;23.078;2022-07-30T05:51:41;15.48;;;13.90;;
20014;SDS011;61787;42.022;23.078;2022-07-30T05:52:44;14.88;;;13.38;;
20014;SDS011;61787;42.022;23.078;2022-07-30T05:53:46;16.20;;;12.52;;
20014;SDS011;61787;42.022;23.078;2022-07-30T05:54:48;18.73;;;13.18;;
20014;SDS011;61787;42.022;23.078;2022-07-30T05:55:49;15.80;;;14.23;;
20014;SDS011;61787;42.022;23.078;2022-07-30T05:56:51;18.33;;;14.10;;
20014;SDS011;61787;42.022;23.078;2022-07-30T05:57:53;14.20;;;12.88;;
20014;SDS011;61787;42.022;23.078;2022-07-30T05:58:54;15.02;;;13.40;;
20014;SDS011;61787;42.022;23.078;2022-07-30T05:59:56;14.23;;;11.93;;
20014;SDS011;61787;42.022;23.078;2022-07-30T06:00:58;14.40;;;12.32;;
20014;SDS011;61787;42.022;23.078;2022-07-30T06:01:59;14.35;;;12.90;;
20014;SDS011;61787;42.022;23.078;2022-07-30T06:03:03;15.55;;;13.20;;
20014;SDS011;61787;42.022;23.078;2022-07-30T06:04:05;18.85;;;12.57;;
20014;SDS011;61787;42.022;23.078;2022-07-30T06:05:07;13.55;;;12.25;;
20014;SDS011;61787;42.022;23.078;2022-07-30T06:06:09;13.68;;;12.30;;
20014;SDS011;61787;42.022;23.078;2022-07-30T06:07:10;12.20;;;10.95;;
20014;SDS011;61787;42.022;23.078;2022-07-30T06:08:12;12.88;;;11.45;;
20014;SDS011;61787;42.022;23.078;2022-07-30T06:09:13;15.13;;;12.50;;
20014;SDS011;61787;42.022;23.078;2022-07-30T06:10:15;16.08;;;12.45;;
20014;SDS011;61787;42.022;23.078;2022-07-30T06:11:17;13.80;;;11.70;;
20014;SDS011;61787;42.022;23.078;2022-07-30T06:12:19;17.52;;;12.18;;
20014;SDS011;61787;42.022;23.078;2022-07-30T06:13:21;13.13;;;11.63;;
20014;SDS011;61787;42.022;23.078;2022-07-30T06:14:22;14.90;;;11.98;;